8°C Temp
8°C Dewpoint
100% Humidity
Temperature
19 KM/H
12 MPH
10 KTS
140°
South East

Wind Speed
Light Rain
Showers
Pressure 1015.92 (hPa) - 30 (in)
Visibility 0.3 (mi) - 0.5 (km)

Current Conditions
LIMC
Location Malpensa 50(km)
Metar :LIMC 050450Z 14010KT 0500 R35R/P2000N R17L/P2000N R35L/P2000N RA OVC004 08/08 Q1016 NOSIG
Mon 5th December 05:50 am

Airport
  Metar Aviation API Data Provided by https://www.checkwx.com/ PHP scripts by weather34.com ©2022